createdAt,value
2022-09-15T00:00:10.358Z,58.44
2022-09-15T00:02:13.196Z,58.16
2022-09-15T00:04:15.551Z,58.07
2022-09-15T00:06:17.941Z,58.25
2022-09-15T00:08:20.196Z,58.28
2022-09-15T00:10:22.431Z,58.59
2022-09-15T00:12:24.574Z,58.52
2022-09-15T00:14:26.729Z,58.59
2022-09-15T00:16:31.308Z,58.36
2022-09-15T00:18:34.440Z,58.78
2022-09-15T00:20:41.393Z,58.88
2022-09-15T00:22:44.537Z,58.79
2022-09-15T00:24:49.572Z,58.53
2022-09-15T00:26:51.720Z,58.89
2022-09-15T00:28:54.679Z,58.96
2022-09-15T00:30:56.839Z,58.82
2022-09-15T00:32:59.089Z,59.39
2022-09-15T00:35:01.658Z,59.17
2022-09-15T00:37:03.949Z,59.31
2022-09-15T00:39:06.471Z,59.54
2022-09-15T00:41:12.470Z,59.64
2022-09-15T00:43:16.192Z,59.43
2022-09-15T00:45:18.467Z,59.60
2022-09-15T00:47:24.942Z,59.78
2022-09-15T00:49:31.150Z,59.92
2022-09-15T00:51:41.389Z,59.68
2022-09-15T00:53:45.831Z,60.13
2022-09-15T00:55:50.720Z,59.94
2022-09-15T00:58:00.059Z,59.83
2022-09-15T01:00:06.969Z,60.27
2022-09-15T01:02:16.536Z,60.22
2022-09-15T01:04:18.679Z,60.24
2022-09-15T01:06:29.700Z,60.49
2022-09-15T01:08:36.633Z,60.30
2022-09-15T01:10:41.428Z,60.43
2022-09-15T01:12:43.670Z,60.64
2022-09-15T01:14:45.795Z,60.40
2022-09-15T01:16:54.260Z,60.29
2022-09-15T01:18:58.148Z,60.50
2022-09-15T01:21:03.756Z,60.12
2022-09-15T01:23:18.970Z,60.54
2022-09-15T01:25:27.232Z,60.38
2022-09-15T01:27:43.029Z,60.63
2022-09-15T01:29:46.058Z,60.75
2022-09-15T01:31:55.207Z,60.86
2022-09-15T01:34:06.807Z,60.73
2022-09-15T01:36:13.473Z,60.56
2022-09-15T01:38:21.848Z,60.44
2022-09-15T01:40:28.842Z,60.75
2022-09-15T01:42:32.857Z,60.94
2022-09-15T01:44:42.828Z,60.76
2022-09-15T01:46:48.313Z,60.75
2022-09-15T01:48:54.449Z,60.77
2022-09-15T01:51:00.369Z,60.85
2022-09-15T01:53:08.611Z,60.91
2022-09-15T01:55:18.397Z,60.69
2022-09-15T01:57:21.762Z,61.21
2022-09-15T01:59:23.921Z,61.02
2022-09-15T02:01:40.836Z,60.94
2022-09-15T02:03:50.514Z,61.18
2022-09-15T02:06:02.173Z,61.33
2022-09-15T02:08:09.151Z,60.76
2022-09-15T02:10:14.873Z,60.68
2022-09-15T02:12:25.570Z,60.99
2022-09-15T02:14:38.282Z,61.00
2022-09-15T02:16:46.984Z,61.04
2022-09-15T02:18:58.350Z,61.31
2022-09-15T02:21:10.630Z,60.89
2022-09-15T02:23:21.895Z,60.89
2022-09-15T02:25:32.397Z,61.08
2022-09-15T02:27:41.321Z,61.27
2022-09-15T02:29:48.069Z,60.85
2022-09-15T02:31:54.514Z,61.27
2022-09-15T02:34:02.469Z,61.22
2022-09-15T02:36:05.425Z,61.49
2022-09-15T02:38:10.018Z,61.26
2022-09-15T02:40:12.712Z,61.24
2022-09-15T02:42:24.761Z,61.68
2022-09-15T02:44:27.318Z,61.72
2022-09-15T02:46:29.680Z,61.57
2022-09-15T02:48:31.846Z,61.46
2022-09-15T02:50:33.942Z,61.67
2022-09-15T02:52:36.104Z,61.61
2022-09-15T02:54:38.330Z,61.48
2022-09-15T02:56:41.260Z,62.20
2022-09-15T02:58:44.180Z,61.43
2022-09-15T03:00:46.385Z,61.83
2022-09-15T03:02:51.813Z,61.56
2022-09-15T03:04:53.938Z,61.54
2022-09-15T03:06:56.052Z,61.45
2022-09-15T03:08:59.088Z,61.82
2022-09-15T03:11:02.073Z,61.51
2022-09-15T03:13:06.653Z,61.87
2022-09-15T03:15:11.271Z,62.05
2022-09-15T03:17:13.658Z,61.39
2022-09-15T03:19:15.839Z,61.26
2022-09-15T03:21:19.365Z,61.51
2022-09-15T03:23:24.924Z,61.84
2022-09-15T03:25:27.314Z,61.64
2022-09-15T03:27:29.736Z,61.38
2022-09-15T03:29:32.031Z,61.34
2022-09-15T03:31:34.264Z,61.74
2022-09-15T03:33:36.973Z,61.75
2022-09-15T03:35:39.925Z,61.75
2022-09-15T03:37:42.138Z,61.39
2022-09-15T03:39:45.490Z,61.43
2022-09-15T03:41:50.421Z,61.54
2022-09-15T03:43:54.155Z,61.45
2022-09-15T03:45:56.977Z,61.54
2022-09-15T03:47:59.092Z,61.08
2022-09-15T03:50:01.191Z,61.29
2022-09-15T03:52:03.740Z,61.66
2022-09-15T03:54:05.908Z,61.48
2022-09-15T03:56:10.000Z,61.22
2022-09-15T03:58:13.789Z,61.25
2022-09-15T04:00:17.368Z,61.22
2022-09-15T04:02:19.516Z,61.59
2022-09-15T04:04:21.790Z,61.22
2022-09-15T04:06:24.505Z,61.26
2022-09-15T04:08:26.618Z,61.55
2022-09-15T04:10:29.510Z,61.00
2022-09-15T04:12:32.635Z,61.35
2022-09-15T04:14:34.851Z,61.39
2022-09-15T04:16:36.959Z,61.00
2022-09-15T04:18:39.225Z,60.75
2022-09-15T04:20:42.226Z,60.49
2022-09-15T04:22:45.488Z,60.83
2022-09-15T04:24:48.625Z,60.57
2022-09-15T04:26:51.661Z,60.76
2022-09-15T04:28:56.883Z,60.22
2022-09-15T04:31:06.709Z,60.26
2022-09-15T04:33:09.305Z,60.53
2022-09-15T04:35:11.644Z,60.45
2022-09-15T04:37:14.155Z,60.25
2022-09-15T04:39:16.655Z,60.35
2022-09-15T04:41:19.790Z,59.93
2022-09-15T04:43:22.689Z,59.83
2022-09-15T04:45:24.798Z,60.17
2022-09-15T04:47:27.032Z,60.55
2022-09-15T04:49:29.290Z,60.18
2022-09-15T04:51:31.498Z,59.99
2022-09-15T04:53:33.851Z,59.95
2022-09-15T04:55:36.769Z,59.89
2022-09-15T04:57:38.913Z,59.90
2022-09-15T04:59:41.198Z,59.92
2022-09-15T05:01:44.021Z,59.88
2022-09-15T05:03:46.750Z,59.34
2022-09-15T05:05:48.857Z,59.66
2022-09-15T05:07:50.969Z,59.55
2022-09-15T05:09:53.480Z,59.47
2022-09-15T05:11:55.853Z,59.43
2022-09-15T05:13:58.006Z,59.50
2022-09-15T05:16:05.170Z,59.60
2022-09-15T05:18:09.257Z,60.27
2022-09-15T05:20:11.656Z,60.05
2022-09-15T05:22:13.832Z,59.39
2022-09-15T05:24:16.981Z,59.19
2022-09-15T05:26:23.366Z,59.56
2022-09-15T05:28:28.748Z,59.54
2022-09-15T05:30:38.772Z,59.73
2022-09-15T05:32:43.489Z,59.99
2022-09-15T05:34:46.221Z,59.96
2022-09-15T05:36:49.776Z,59.86
2022-09-15T05:38:53.737Z,59.68
2022-09-15T05:41:01.607Z,60.25
2022-09-15T05:43:03.805Z,60.17
2022-09-15T05:45:06.673Z,60.14
2022-09-15T05:47:08.770Z,60.01
2022-09-15T05:49:12.045Z,60.07
2022-09-15T05:51:16.198Z,60.17
2022-09-15T05:53:18.509Z,60.47
2022-09-15T05:55:20.710Z,60.37
2022-09-15T05:57:23.057Z,60.68
2022-09-15T05:59:25.285Z,60.51
2022-09-15T06:01:31.237Z,60.55
2022-09-15T06:03:33.638Z,60.68
2022-09-15T06:05:35.709Z,60.54
2022-09-15T06:07:37.896Z,60.93
2022-09-15T06:09:40.229Z,61.12
2022-09-15T06:11:42.442Z,60.70
2022-09-15T06:13:45.645Z,61.09
2022-09-15T06:15:48.310Z,61.23
2022-09-15T06:17:50.976Z,61.45
2022-09-15T06:19:53.245Z,61.96
2022-09-15T06:21:55.474Z,61.55
2022-09-15T06:24:00.131Z,62.04
2022-09-15T06:26:08.670Z,61.66
2022-09-15T06:28:10.758Z,61.66
2022-09-15T06:30:13.884Z,61.66
2022-09-15T06:32:16.134Z,61.98
2022-09-15T06:34:18.425Z,61.79
2022-09-15T06:36:22.976Z,62.14
2022-09-15T06:38:25.170Z,62.18
2022-09-15T06:40:27.432Z,62.14
2022-09-15T06:42:29.803Z,62.09
2022-09-15T06:44:32.050Z,62.16
2022-09-15T06:46:34.305Z,61.94
2022-09-15T06:48:37.589Z,62.41
2022-09-15T06:50:39.790Z,62.33
2022-09-15T06:52:43.784Z,62.75
2022-09-15T06:54:46.637Z,62.63
2022-09-15T06:56:49.110Z,62.66
2022-09-15T06:59:12.918Z,62.82
2022-09-15T07:06:29.711Z,62.44
2022-09-15T07:08:36.828Z,62.10
2022-09-15T07:10:39.017Z,62.48
2022-09-15T07:12:43.174Z,62.30
2022-09-15T07:14:45.776Z,62.35
2022-09-15T07:16:48.097Z,62.50
2022-09-15T07:18:50.310Z,62.12
2022-09-15T07:20:53.531Z,61.83
2022-09-15T07:22:55.699Z,62.07
2022-09-15T07:24:57.786Z,62.46
2022-09-15T07:27:01.174Z,61.94
2022-09-15T07:29:06.265Z,61.68
2022-09-15T07:31:10.433Z,61.59
2022-09-15T07:33:14.717Z,61.64
2022-09-15T07:35:16.889Z,61.69
2022-09-15T07:37:19.279Z,61.23
2022-09-15T07:39:21.691Z,60.95
2022-09-15T07:41:27.270Z,61.24
2022-09-15T07:43:29.430Z,61.43
2022-09-15T07:45:32.213Z,61.13
2022-09-15T07:47:34.432Z,61.42
2022-09-15T07:49:36.605Z,61.27
2022-09-15T07:51:41.490Z,61.29
2022-09-15T07:53:45.531Z,61.07
2022-09-15T07:55:53.533Z,61.08
2022-09-15T07:57:59.631Z,61.08
2022-09-15T08:00:03.584Z,61.11
2022-09-15T08:02:05.923Z,60.64
2022-09-15T08:04:08.166Z,60.37
2022-09-15T08:06:11.078Z,60.62
2022-09-15T08:08:13.549Z,60.85
2022-09-15T08:10:15.762Z,60.20
2022-09-15T08:12:18.193Z,60.17
2022-09-15T08:14:20.505Z,60.51
2022-09-15T08:16:24.577Z,60.47
2022-09-15T08:18:26.867Z,59.94
2022-09-15T08:20:29.029Z,60.00
2022-09-15T08:22:31.214Z,60.18
2022-09-15T08:24:33.666Z,60.05
2022-09-15T08:26:38.719Z,59.86
2022-09-15T08:28:41.739Z,59.77
2022-09-15T08:30:43.969Z,59.69
2022-09-15T08:32:46.877Z,59.45
2022-09-15T08:34:48.991Z,59.15
2022-09-15T08:36:51.210Z,58.74
2022-09-15T08:38:53.316Z,59.00
2022-09-15T08:41:00.934Z,58.77
2022-09-15T08:43:16.508Z,58.97
2022-09-15T08:45:22.969Z,58.36
2022-09-15T08:47:31.406Z,58.44
2022-09-15T08:49:51.479Z,58.44
2022-09-15T08:51:56.366Z,58.41
2022-09-15T08:54:06.296Z,58.10
2022-09-15T08:56:17.368Z,57.97
2022-09-15T08:58:21.275Z,57.85
2022-09-15T09:00:27.869Z,57.68
2022-09-15T09:02:34.651Z,57.47
2022-09-15T09:04:41.372Z,57.91
2022-09-15T09:06:47.305Z,57.70
2022-09-15T09:08:50.356Z,57.58
2022-09-15T09:10:59.391Z,57.42
2022-09-15T09:13:06.052Z,57.27
2022-09-15T09:15:16.279Z,56.94
2022-09-15T09:17:19.194Z,57.06
2022-09-15T09:19:32.262Z,56.57
2022-09-15T09:21:40.814Z,56.77
2022-09-15T09:23:54.991Z,56.00
2022-09-15T09:25:58.100Z,56.20
2022-09-15T09:28:02.599Z,55.60
2022-09-15T09:30:14.406Z,55.61
2022-09-15T09:32:24.832Z,55.55
2022-09-15T09:34:33.588Z,55.85
2022-09-15T09:36:37.035Z,55.61
2022-09-15T09:38:42.391Z,56.05
2022-09-15T09:40:44.918Z,55.62
2022-09-15T09:42:47.610Z,55.80
2022-09-15T09:44:49.891Z,55.48
2022-09-15T09:49:01.350Z,55.14
2022-09-15T09:51:04.068Z,54.63
2022-09-15T09:53:13.134Z,54.44
2022-09-15T09:55:27.422Z,54.62
2022-09-15T09:57:32.854Z,54.44
2022-09-15T09:59:46.342Z,54.23
2022-09-15T10:02:06.595Z,53.46
2022-09-15T10:04:17.638Z,53.45
2022-09-15T10:06:22.473Z,53.92
2022-09-15T10:08:25.752Z,53.54
2022-09-15T10:10:35.607Z,53.60
2022-09-15T10:12:42.393Z,53.34
2022-09-15T10:14:52.658Z,53.56
2022-09-15T10:16:59.497Z,53.68
2022-09-15T10:19:02.316Z,53.49
2022-09-15T10:21:08.168Z,52.94
2022-09-15T10:23:16.926Z,53.35
2022-09-15T10:25:20.867Z,52.92
2022-09-15T10:27:27.973Z,52.54
2022-09-15T10:29:39.299Z,52.38
2022-09-15T10:33:57.874Z,52.10
2022-09-15T10:36:05.974Z,52.42
2022-09-15T10:38:17.449Z,52.12
2022-09-15T10:40:25.913Z,52.01
2022-09-15T10:42:32.684Z,51.92
2022-09-15T10:44:38.338Z,52.17
2022-09-15T10:46:41.670Z,51.87
2022-09-15T10:48:53.247Z,51.82
2022-09-15T10:51:07.223Z,51.45
2022-09-15T10:53:15.850Z,50.90
2022-09-15T10:55:42.220Z,50.44
2022-09-15T10:57:50.110Z,50.57
2022-09-15T10:59:58.511Z,49.96
2022-09-15T11:02:08.594Z,50.21
2022-09-15T11:04:18.118Z,49.65
2022-09-15T11:06:24.061Z,49.63
2022-09-15T11:08:33.456Z,49.57
2022-09-15T11:10:37.075Z,49.14
2022-09-15T11:12:42.650Z,49.45
2022-09-15T11:14:50.718Z,49.09
2022-09-15T11:16:59.129Z,49.52
2022-09-15T11:19:03.022Z,48.78
2022-09-15T11:21:11.508Z,48.86
2022-09-15T11:23:19.988Z,48.63
2022-09-15T11:25:27.234Z,48.35
2022-09-15T11:27:34.397Z,47.80
2022-09-15T11:29:57.621Z,47.51
2022-09-15T11:32:10.074Z,47.14
2022-09-15T11:34:13.090Z,46.91
2022-09-15T11:36:22.681Z,46.65
2022-09-15T11:38:31.192Z,46.71
2022-09-15T11:40:44.451Z,46.08
2022-09-15T11:42:55.252Z,45.88
2022-09-15T11:44:59.689Z,45.71
2022-09-15T11:47:05.408Z,46.20
2022-09-15T11:49:14.210Z,45.92
2022-09-15T11:51:19.719Z,45.35
2022-09-15T11:53:30.197Z,45.24
2022-09-15T11:55:38.709Z,45.34
2022-09-15T11:57:51.438Z,45.34
2022-09-15T12:00:03.361Z,44.88
2022-09-15T12:02:11.836Z,44.83
2022-09-15T12:04:27.611Z,44.26
2022-09-15T12:06:36.098Z,43.19
2022-09-15T12:08:43.771Z,42.94
2022-09-15T12:10:52.590Z,43.15
2022-09-15T12:12:57.229Z,43.06
2022-09-15T12:14:59.611Z,43.37
2022-09-15T12:17:04.349Z,43.00
2022-09-15T12:19:17.314Z,43.59
2022-09-15T12:21:31.310Z,43.83
2022-09-15T12:23:47.244Z,43.82
2022-09-15T12:25:52.878Z,42.95
2022-09-15T12:28:01.418Z,43.65
2022-09-15T12:30:28.618Z,43.21
2022-09-15T12:32:33.455Z,42.81
2022-09-15T12:34:38.777Z,42.20
2022-09-15T12:36:44.345Z,42.12
2022-09-15T12:38:50.183Z,41.62
2022-09-15T12:40:59.094Z,41.59
2022-09-15T12:45:21.281Z,42.36
2022-09-15T12:47:32.814Z,42.35
2022-09-15T12:49:42.527Z,42.02
2022-09-15T12:54:04.878Z,42.37
2022-09-15T12:56:11.988Z,42.48
2022-09-15T12:58:18.854Z,41.94
2022-09-15T13:00:42.310Z,42.18
2022-09-15T13:02:54.555Z,42.15
2022-09-15T13:04:58.318Z,42.28
2022-09-15T13:07:09.327Z,42.34
2022-09-15T13:09:22.986Z,42.37
2022-09-15T13:11:38.938Z,42.84
2022-09-15T13:13:47.738Z,42.93
2022-09-15T13:15:53.464Z,42.32
2022-09-15T13:17:57.649Z,42.26
2022-09-15T13:20:08.919Z,42.06
2022-09-15T13:22:13.284Z,42.22
2022-09-15T13:24:22.050Z,41.48
2022-09-15T13:28:29.803Z,41.20
2022-09-15T13:30:36.870Z,40.88
2022-09-15T13:32:47.300Z,40.86
2022-09-15T13:40:19.164Z,40.90
2022-09-15T13:42:26.444Z,40.96
2022-09-15T13:45:07.402Z,40.25
2022-09-15T13:47:24.217Z,39.50
2022-09-15T13:49:39.849Z,39.40
2022-09-15T13:51:47.598Z,38.22
2022-09-15T13:53:58.709Z,38.46
2022-09-15T13:56:07.002Z,38.23
2022-09-15T14:00:48.546Z,36.62
2022-09-15T14:02:57.215Z,36.65
2022-09-15T14:04:59.509Z,36.95
2022-09-15T14:07:02.640Z,37.55
2022-09-15T14:09:13.560Z,36.74
2022-09-15T14:11:22.048Z,36.62
2022-09-15T14:13:28.223Z,36.25
2022-09-15T14:15:30.738Z,36.51
2022-09-15T14:17:34.502Z,36.69
2022-09-15T14:19:38.633Z,36.99
2022-09-15T14:21:49.418Z,35.96
2022-09-15T14:23:56.478Z,34.59
2022-09-15T14:26:01.830Z,34.65
2022-09-15T14:28:05.871Z,33.67
2022-09-15T14:30:18.303Z,33.77
2022-09-15T14:32:21.531Z,33.75
2022-09-15T14:34:27.074Z,33.32
2022-09-15T14:36:33.557Z,33.03
2022-09-15T14:38:48.791Z,32.39
2022-09-15T14:40:57.563Z,32.32
2022-09-15T14:43:00.916Z,33.13
2022-09-15T14:47:32.179Z,32.13
2022-09-15T14:49:34.493Z,31.45
2022-09-15T14:51:44.956Z,31.37
2022-09-15T14:54:11.002Z,31.89
2022-09-15T14:56:20.378Z,32.56
2022-09-15T14:58:35.578Z,32.30
2022-09-15T15:00:45.114Z,33.16
2022-09-15T15:03:01.249Z,33.63
2022-09-15T15:05:18.740Z,34.79
2022-09-15T15:07:26.716Z,35.08
2022-09-15T15:09:38.700Z,35.13
2022-09-15T15:11:46.144Z,35.62
2022-09-15T15:14:07.345Z,35.83
2022-09-15T15:16:20.221Z,35.79
2022-09-15T15:20:58.466Z,36.33
2022-09-15T15:23:12.520Z,36.41
2022-09-15T15:27:35.145Z,36.89
2022-09-15T15:29:55.654Z,36.45
2022-09-15T15:32:08.074Z,36.70
2022-09-15T15:34:26.391Z,36.22
2022-09-15T15:36:32.325Z,36.41
2022-09-15T15:38:46.384Z,36.37
2022-09-15T15:41:05.177Z,36.83
2022-09-15T15:43:13.830Z,36.35
2022-09-15T15:45:33.914Z,37.39
2022-09-15T15:50:15.104Z,38.69
2022-09-15T15:52:23.324Z,39.03
2022-09-15T15:54:38.784Z,39.65
2022-09-15T15:56:43.804Z,40.07
2022-09-15T15:58:49.110Z,39.53
2022-09-15T16:05:02.959Z,40.33
2022-09-15T16:07:05.620Z,40.78
2022-09-15T16:09:08.738Z,40.88
2022-09-15T16:15:23.742Z,41.61
2022-09-15T16:17:26.306Z,41.58
2022-09-15T16:19:29.109Z,41.65
2022-09-15T16:25:52.885Z,40.70
2022-09-15T16:34:18.926Z,40.16
2022-09-15T16:38:26.215Z,40.08
2022-09-15T16:40:29.768Z,40.19
2022-09-15T16:42:39.344Z,40.58
2022-09-15T16:44:40.954Z,40.20
2022-09-15T16:46:43.490Z,40.11
2022-09-15T16:48:46.742Z,40.44
2022-09-15T16:51:16.918Z,40.58
2022-09-15T16:53:17.876Z,40.68
2022-09-15T16:55:42.449Z,40.75
2022-09-15T16:57:45.320Z,41.01
2022-09-15T17:01:54.460Z,40.30
2022-09-15T17:04:13.150Z,40.46
2022-09-15T17:06:18.589Z,41.08
2022-09-15T17:14:46.026Z,40.27
2022-09-15T17:16:50.105Z,40.49
2022-09-15T17:18:53.798Z,40.86
2022-09-15T17:23:34.050Z,40.52
2022-09-15T17:27:56.539Z,40.72
2022-09-15T17:30:26.593Z,40.62
2022-09-15T17:32:36.759Z,40.96
2022-09-15T17:34:39.511Z,41.52
2022-09-15T17:38:51.770Z,41.25
2022-09-15T17:43:00.939Z,40.63
2022-09-15T17:45:03.423Z,40.59
2022-09-15T17:47:11.367Z,40.54
2022-09-15T17:53:47.170Z,40.92
2022-09-15T17:55:55.092Z,41.12
2022-09-15T18:00:07.853Z,40.90
2022-09-15T18:02:19.469Z,41.72
2022-09-15T18:04:23.192Z,43.13
2022-09-15T18:06:27.837Z,41.70
2022-09-15T18:08:32.309Z,42.69
2022-09-15T18:10:38.367Z,41.87
2022-09-15T18:12:44.165Z,42.44
2022-09-15T18:14:58.136Z,42.09
2022-09-15T18:17:04.440Z,41.47
2022-09-15T18:19:06.709Z,41.47
2022-09-15T18:21:23.429Z,42.96
2022-09-15T18:23:31.789Z,42.36
2022-09-15T18:27:39.779Z,42.18
2022-09-15T18:33:53.891Z,41.55
2022-09-15T18:38:03.097Z,41.38
2022-09-15T18:40:11.027Z,42.04
2022-09-15T18:44:14.389Z,42.10
2022-09-15T18:46:27.068Z,41.42
2022-09-15T18:48:35.131Z,41.62
2022-09-15T18:50:37.471Z,41.57
2022-09-15T18:52:41.352Z,41.63
2022-09-15T18:54:45.262Z,42.21
2022-09-15T18:56:48.112Z,42.00
2022-09-15T18:58:53.552Z,41.75
2022-09-15T19:00:59.391Z,42.04
2022-09-15T19:03:03.492Z,43.05
2022-09-15T19:05:06.533Z,43.56
2022-09-15T19:07:10.431Z,43.24
2022-09-15T19:09:12.709Z,43.07
2022-09-15T19:11:14.872Z,43.08
2022-09-15T19:13:17.250Z,43.10
2022-09-15T19:21:35.215Z,42.38
2022-09-15T19:23:37.254Z,43.12
2022-09-15T19:25:43.216Z,43.38
2022-09-15T19:28:01.913Z,42.10
2022-09-15T19:30:07.732Z,41.95
2022-09-15T19:32:14.045Z,41.91
2022-09-15T19:34:16.255Z,42.05
2022-09-15T19:38:20.484Z,41.45
2022-09-15T19:40:28.301Z,41.41
2022-09-15T19:42:30.734Z,41.41
2022-09-15T19:46:35.399Z,41.65
2022-09-15T19:48:40.911Z,42.09
2022-09-15T19:50:46.049Z,42.14
2022-09-15T19:52:48.334Z,42.01
2022-09-15T19:56:56.896Z,41.84
2022-09-15T19:58:59.478Z,41.85
2022-09-15T20:01:01.798Z,41.81
2022-09-15T20:05:06.934Z,41.29
2022-09-15T20:07:09.247Z,41.50
2022-09-15T20:09:11.750Z,41.94
2022-09-15T20:11:14.996Z,41.75
2022-09-15T20:15:23.056Z,42.10
2022-09-15T20:19:35.039Z,41.71
2022-09-15T20:21:50.294Z,41.35
2022-09-15T20:26:30.653Z,41.36
2022-09-15T20:28:34.119Z,41.45
2022-09-15T20:30:36.559Z,41.34
2022-09-15T20:32:41.521Z,41.30
2022-09-15T20:34:43.715Z,41.62
2022-09-15T20:38:53.982Z,41.56
2022-09-15T20:40:56.069Z,41.79
2022-09-15T20:42:57.692Z,42.20
2022-09-15T20:45:00.056Z,41.83
2022-09-15T20:47:02.292Z,41.89
2022-09-15T20:49:05.269Z,41.71
2022-09-15T20:53:14.579Z,41.98
2022-09-15T20:55:16.819Z,42.54
2022-09-15T20:57:19.034Z,42.19
2022-09-15T21:03:30.434Z,42.31
2022-09-15T21:05:32.768Z,42.52
2022-09-15T21:07:35.281Z,41.87
2022-09-15T21:09:37.464Z,42.13
2022-09-15T21:13:43.692Z,42.25
2022-09-15T21:15:53.906Z,42.21
2022-09-15T21:17:56.160Z,42.04
2022-09-15T21:20:03.716Z,42.03
2022-09-15T21:22:08.145Z,42.13
2022-09-15T21:24:11.131Z,42.22
2022-09-15T21:26:29.756Z,42.81
2022-09-15T21:28:44.905Z,42.25
2022-09-15T21:30:49.286Z,42.66
2022-09-15T21:32:51.660Z,42.88
2022-09-15T21:34:56.169Z,43.14
2022-09-15T21:36:58.450Z,42.65
2022-09-15T21:39:00.763Z,42.88
2022-09-15T21:41:03.934Z,43.03
2022-09-15T21:43:06.130Z,42.92
2022-09-15T21:47:11.363Z,42.73
2022-09-15T21:49:13.440Z,43.34
2022-09-15T21:51:46.514Z,43.30
2022-09-15T21:56:52.068Z,43.68
2022-09-15T21:59:16.270Z,43.56
2022-09-15T22:01:45.520Z,43.80
2022-09-15T22:03:55.705Z,43.83
2022-09-15T22:08:05.007Z,43.79
2022-09-15T22:10:07.331Z,43.90
2022-09-15T22:12:09.795Z,43.60
2022-09-15T22:14:21.688Z,43.71
2022-09-15T22:16:26.869Z,44.17
2022-09-15T22:18:29.152Z,43.59
2022-09-15T22:20:31.804Z,43.69
2022-09-15T22:22:34.415Z,43.81
2022-09-15T22:24:36.744Z,43.45
2022-09-15T22:26:39.666Z,44.21
2022-09-15T22:30:44.332Z,43.46
2022-09-15T22:32:46.517Z,43.64
2022-09-15T22:36:50.837Z,43.42
2022-09-15T22:38:54.724Z,43.54
2022-09-15T22:41:04.466Z,43.67
2022-09-15T22:43:07.055Z,43.81
2022-09-15T22:45:11.796Z,43.51
2022-09-15T22:47:15.861Z,44.19
2022-09-15T22:53:34.513Z,44.34
2022-09-15T22:55:57.255Z,43.94
2022-09-15T22:58:01.643Z,44.58
2022-09-15T23:00:45.160Z,44.86
2022-09-15T23:03:12.713Z,45.22
2022-09-15T23:05:34.895Z,44.99
2022-09-15T23:07:36.845Z,45.06
2022-09-15T23:09:43.343Z,45.50
2022-09-15T23:11:45.503Z,45.28
2022-09-15T23:13:47.870Z,45.21
2022-09-15T23:15:50.013Z,45.36
2022-09-15T23:19:53.363Z,45.32
2022-09-15T23:21:57.142Z,45.22
2022-09-15T23:24:01.665Z,45.66
2022-09-15T23:26:07.533Z,45.22
2022-09-15T23:28:09.743Z,45.01
2022-09-15T23:30:12.841Z,45.33
2022-09-15T23:32:14.983Z,45.95
2022-09-15T23:34:17.063Z,45.43
2022-09-15T23:36:23.895Z,44.78
2022-09-15T23:38:30.044Z,45.74
2022-09-15T23:40:34.233Z,45.17
2022-09-15T23:44:41.325Z,45.04
2022-09-15T23:46:44.562Z,45.44
2022-09-15T23:53:00.097Z,45.79
2022-09-15T23:55:08.919Z,45.98
2022-09-15T23:57:13.036Z,45.23
2022-09-15T23:59:14.854Z,45.56
